createdAt,value
2018-11-14T00:00:28.106Z,100.00
2018-11-14T00:02:58.047Z,100.00
2018-11-14T00:05:27.112Z,100.00
2018-11-14T00:07:56.176Z,100.00
2018-11-14T00:10:25.355Z,100.00
2018-11-14T00:12:54.519Z,100.00
2018-11-14T00:15:24.672Z,100.00
2018-11-14T00:17:53.948Z,100.00
2018-11-14T00:20:23.001Z,100.00
2018-11-14T00:22:52.178Z,100.00
2018-11-14T00:25:21.257Z,100.00
2018-11-14T00:27:50.360Z,100.00
2018-11-14T00:30:20.649Z,100.00
2018-11-14T00:32:49.765Z,100.00
2018-11-14T00:35:18.962Z,100.00
2018-11-14T00:37:48.221Z,100.00
2018-11-14T00:40:18.060Z,100.00
2018-11-14T00:42:47.569Z,100.00
2018-11-14T00:45:18.013Z,100.00
2018-11-14T00:47:47.903Z,100.00
2018-11-14T00:50:17.629Z,100.00
2018-11-14T00:52:46.866Z,100.00
2018-11-14T00:55:17.306Z,100.00
2018-11-14T00:57:47.563Z,100.00
2018-11-14T01:00:18.363Z,100.00
2018-11-14T01:02:47.581Z,100.00
2018-11-14T01:05:17.255Z,100.00
2018-11-14T01:07:46.306Z,100.00
2018-11-14T01:10:16.737Z,100.00
2018-11-14T01:12:46.577Z,100.00
2018-11-14T01:15:18.383Z,100.00
2018-11-14T01:17:47.471Z,100.00
2018-11-14T01:20:18.418Z,100.00
2018-11-14T01:22:47.804Z,100.00
2018-11-14T01:25:17.569Z,100.00
2018-11-14T01:27:46.774Z,100.00
2018-11-14T01:30:21.771Z,100.00
2018-11-14T01:32:51.191Z,100.00
2018-11-14T01:35:20.526Z,100.00
2018-11-14T01:37:49.559Z,100.00
2018-11-14T01:40:24.312Z,100.00
2018-11-14T01:42:54.666Z,100.00
2018-11-14T01:45:23.865Z,100.00
2018-11-14T01:47:52.981Z,100.00
2018-11-14T01:50:22.089Z,100.00
2018-11-14T01:52:51.090Z,100.00
2018-11-14T01:55:20.854Z,100.00
2018-11-14T01:57:49.945Z,100.00
2018-11-14T02:00:21.490Z,100.00
2018-11-14T02:02:50.560Z,100.00
2018-11-14T02:05:19.672Z,100.00
2018-11-14T02:07:48.776Z,100.00
2018-11-14T02:10:18.985Z,100.00
2018-11-14T02:12:48.110Z,100.00
2018-11-14T02:15:19.469Z,100.00
2018-11-14T02:17:48.531Z,100.00
2018-11-14T02:20:17.605Z,100.00
2018-11-14T02:22:46.948Z,100.00
2018-11-14T02:25:16.393Z,100.00
2018-11-14T02:27:45.458Z,100.00
2018-11-14T02:30:17.324Z,100.00
2018-11-14T02:32:46.390Z,100.00
2018-11-14T02:35:15.545Z,100.00
2018-11-14T02:37:45.029Z,100.00
2018-11-14T02:40:16.390Z,100.00
2018-11-14T02:42:45.481Z,100.00
2018-11-14T02:45:14.938Z,100.00
2018-11-14T02:47:44.179Z,100.00
2018-11-14T02:50:14.905Z,100.00
2018-11-14T02:52:43.987Z,100.00
2018-11-14T02:55:14.341Z,100.00
2018-11-14T02:57:43.921Z,100.00
2018-11-14T03:00:21.842Z,100.00
2018-11-14T03:02:50.984Z,100.00
2018-11-14T03:05:20.121Z,100.00
2018-11-14T03:07:49.182Z,100.00
2018-11-14T03:10:20.250Z,100.00
2018-11-14T03:12:49.411Z,100.00
2018-11-14T03:15:19.967Z,100.00
2018-11-14T03:17:49.110Z,100.00
2018-11-14T03:20:20.232Z,100.00
2018-11-14T03:22:49.291Z,100.00
2018-11-14T03:25:18.390Z,100.00
2018-11-14T03:27:47.504Z,100.00
2018-11-14T03:30:17.651Z,100.00
2018-11-14T03:32:46.719Z,100.00
2018-11-14T03:35:15.827Z,100.00
2018-11-14T03:37:44.860Z,100.00
2018-11-14T03:40:15.231Z,100.00
2018-11-14T03:42:44.490Z,100.00
2018-11-14T03:45:14.301Z,100.00
2018-11-14T03:47:43.361Z,100.00
2018-11-14T03:50:12.568Z,100.00
2018-11-14T03:52:41.592Z,100.00
2018-11-14T03:55:10.702Z,100.00
2018-11-14T03:57:39.717Z,100.00
2018-11-14T04:00:12.317Z,100.00
2018-11-14T04:02:41.818Z,100.00
2018-11-14T04:05:10.926Z,100.00
2018-11-14T04:07:40.717Z,100.00
2018-11-14T04:10:11.337Z,100.00
2018-11-14T04:12:40.866Z,100.00
2018-11-14T04:15:11.390Z,100.00
2018-11-14T04:17:40.455Z,100.00
2018-11-14T04:20:12.751Z,100.00
2018-11-14T04:22:41.986Z,100.00
2018-11-14T04:25:13.716Z,100.00
2018-11-14T04:27:43.625Z,100.00
2018-11-14T04:30:14.681Z,100.00
2018-11-14T04:32:44.053Z,100.00
2018-11-14T04:35:14.131Z,100.00
2018-11-14T04:37:43.130Z,100.00
2018-11-14T04:40:14.945Z,100.00
2018-11-14T04:42:44.063Z,100.00
2018-11-14T04:45:16.537Z,100.00
2018-11-14T04:47:45.611Z,100.00
2018-11-14T04:50:17.326Z,100.00
2018-11-14T04:52:47.198Z,100.00
2018-11-14T04:55:17.199Z,100.00
2018-11-14T04:57:46.487Z,100.00
2018-11-14T05:00:16.435Z,100.00
2018-11-14T05:02:46.134Z,100.00
2018-11-14T05:05:16.467Z,100.00
2018-11-14T05:07:45.575Z,100.00
2018-11-14T05:10:18.154Z,100.00
2018-11-14T05:12:47.565Z,100.00
2018-11-14T05:15:18.074Z,100.00
2018-11-14T05:17:47.577Z,100.00
2018-11-14T05:20:17.817Z,100.00
2018-11-14T05:22:47.266Z,100.00
2018-11-14T05:25:16.730Z,100.00
2018-11-14T05:27:45.890Z,100.00
2018-11-14T05:30:16.213Z,100.00
2018-11-14T05:32:46.374Z,100.00
2018-11-14T05:35:15.891Z,100.00
2018-11-14T05:37:45.265Z,100.00
2018-11-14T05:40:16.796Z,100.00
2018-11-14T05:42:46.558Z,100.00
2018-11-14T05:45:19.434Z,100.00
2018-11-14T05:47:48.531Z,100.00
2018-11-14T05:50:18.730Z,100.00
2018-11-14T05:52:47.812Z,100.00
2018-11-14T05:55:17.147Z,100.00
2018-11-14T05:57:46.255Z,100.00
2018-11-14T06:00:23.013Z,100.00
2018-11-14T06:02:52.116Z,100.00
2018-11-14T06:05:21.191Z,100.00
2018-11-14T06:07:50.180Z,100.00
2018-11-14T06:10:19.212Z,100.00
2018-11-14T06:12:48.293Z,100.00
2018-11-14T06:15:18.395Z,100.00
2018-11-14T06:17:47.849Z,100.00
2018-11-14T06:20:19.046Z,100.00
2018-11-14T06:22:48.882Z,100.00
2018-11-14T06:25:27.428Z,100.00
2018-11-14T06:27:57.186Z,100.00
2018-11-14T06:30:26.578Z,100.00
2018-11-14T06:32:56.020Z,100.00
2018-11-14T06:35:25.227Z,100.00
2018-11-14T06:37:54.572Z,100.00
2018-11-14T06:40:23.665Z,100.00
2018-11-14T06:42:52.704Z,100.00
2018-11-14T06:45:23.792Z,100.00
2018-11-14T06:47:54.061Z,100.00
2018-11-14T06:50:23.272Z,100.00
2018-11-14T06:52:53.689Z,100.00
2018-11-14T06:55:22.947Z,100.00
2018-11-14T06:57:51.989Z,100.00
2018-11-14T07:00:25.685Z,100.00
2018-11-14T07:02:55.409Z,100.00
2018-11-14T07:05:24.458Z,100.00
2018-11-14T07:07:53.506Z,100.00
2018-11-14T07:10:23.809Z,100.00
2018-11-14T07:12:52.925Z,100.00
2018-11-14T07:15:23.460Z,100.00
2018-11-14T07:17:52.804Z,100.00
2018-11-14T07:20:27.198Z,100.00
2018-11-14T07:22:56.368Z,100.00
2018-11-14T07:25:25.483Z,100.00
2018-11-14T07:27:54.534Z,100.00
2018-11-14T07:30:24.746Z,100.00
2018-11-14T07:32:55.201Z,100.00
2018-11-14T07:35:24.329Z,100.00
2018-11-14T07:39:01.575Z,100.00
2018-11-14T07:41:33.824Z,100.00
2018-11-14T07:44:02.974Z,100.00
2018-11-14T07:46:32.970Z,100.00
2018-11-14T07:49:02.287Z,100.00
2018-11-14T07:51:31.469Z,100.00
2018-11-14T07:54:00.536Z,100.00
2018-11-14T07:56:29.607Z,100.00
2018-11-14T07:58:58.614Z,100.00
2018-11-14T08:01:27.692Z,100.00
2018-11-14T08:03:56.704Z,100.00
2018-11-14T08:06:25.721Z,100.00
2018-11-14T08:08:54.775Z,100.00
2018-11-14T08:11:23.801Z,100.00
2018-11-14T08:13:52.804Z,100.00
2018-11-14T08:16:21.800Z,100.00
2018-11-14T08:18:50.843Z,100.00
2018-11-14T08:21:19.847Z,100.00
2018-11-14T08:23:48.899Z,100.00
2018-11-14T08:26:18.069Z,100.00
2018-11-14T08:28:47.127Z,100.00
2018-11-14T08:31:16.174Z,100.00
2018-11-14T08:33:45.290Z,100.00
2018-11-14T08:36:14.337Z,100.00
2018-11-14T08:38:43.378Z,100.00
2018-11-14T08:41:12.395Z,100.00
2018-11-14T08:43:41.511Z,100.00
2018-11-14T08:46:10.603Z,100.00
2018-11-14T08:48:39.842Z,100.00
2018-11-14T08:51:08.927Z,100.00
2018-11-14T08:53:38.004Z,100.00
2018-11-14T08:56:07.153Z,99.49
2018-11-14T08:58:36.235Z,99.16
2018-11-14T09:01:05.490Z,99.53
2018-11-14T09:03:34.546Z,99.96
2018-11-14T09:06:03.609Z,98.66
2018-11-14T09:08:32.702Z,99.06
2018-11-14T09:11:01.849Z,99.52
2018-11-14T09:13:30.780Z,99.51
2018-11-14T09:15:59.821Z,99.34
2018-11-14T09:18:28.875Z,99.23
2018-11-14T09:20:57.971Z,98.88
2018-11-14T09:23:27.018Z,98.78
2018-11-14T09:25:56.096Z,99.61
2018-11-14T09:28:25.192Z,99.86
2018-11-14T09:30:54.263Z,98.63
2018-11-14T09:33:23.303Z,98.05
2018-11-14T09:35:52.376Z,97.92
2018-11-14T09:38:21.436Z,97.80
2018-11-14T09:40:50.524Z,97.55
2018-11-14T09:43:19.501Z,96.15
2018-11-14T09:45:48.508Z,95.53
2018-11-14T09:48:17.561Z,95.59
2018-11-14T09:50:46.573Z,96.11
2018-11-14T09:53:15.754Z,95.18
2018-11-14T09:55:44.776Z,94.92
2018-11-14T09:58:13.844Z,94.42
2018-11-14T10:00:43.017Z,94.17
2018-11-14T10:03:16.235Z,94.27
2018-11-14T10:05:45.337Z,93.78
2018-11-14T10:08:14.378Z,93.74
2018-11-14T10:10:43.488Z,92.26
2018-11-14T10:13:12.585Z,91.71
2018-11-14T10:15:41.715Z,91.49
2018-11-14T10:18:10.774Z,90.03
2018-11-14T10:20:39.865Z,87.98
2018-11-14T10:23:08.918Z,88.75
2018-11-14T10:25:37.959Z,89.07
2018-11-14T10:28:07.053Z,87.71
2018-11-14T10:30:36.053Z,87.00
2018-11-14T10:33:05.146Z,85.27
2018-11-14T10:35:34.194Z,85.52
2018-11-14T10:38:03.396Z,85.11
2018-11-14T10:40:32.393Z,83.63
2018-11-14T10:43:01.494Z,82.13
2018-11-14T10:45:30.477Z,81.12
2018-11-14T10:47:59.459Z,80.95
2018-11-14T10:50:28.567Z,81.08
2018-11-14T10:52:57.535Z,81.09
2018-11-14T10:55:26.598Z,78.46
2018-11-14T10:57:55.722Z,79.02
2018-11-14T11:00:31.634Z,78.39
2018-11-14T11:03:07.108Z,80.57
2018-11-14T11:05:44.036Z,80.14
2018-11-14T11:08:19.789Z,79.89
2018-11-14T11:10:54.283Z,80.13
2018-11-14T11:15:31.625Z,80.23
2018-11-14T11:18:02.534Z,80.33
2018-11-14T11:20:31.552Z,79.54
2018-11-14T11:23:00.587Z,81.23
2018-11-14T11:25:29.679Z,80.67
2018-11-14T11:27:58.678Z,80.73
2018-11-14T11:30:27.691Z,79.70
2018-11-14T11:32:56.713Z,75.75
2018-11-14T11:35:25.859Z,77.21
2018-11-14T11:37:54.907Z,75.45
2018-11-14T11:40:24.049Z,74.17
2018-11-14T11:42:53.141Z,73.36
2018-11-14T11:45:22.172Z,74.89
2018-11-14T11:47:51.228Z,72.43
2018-11-14T11:50:20.330Z,69.15
2018-11-14T11:52:49.400Z,68.01
2018-11-14T11:55:18.572Z,66.88
2018-11-14T11:57:47.617Z,68.76
2018-11-14T12:00:16.705Z,71.97
2018-11-14T12:02:45.780Z,68.96
2018-11-14T12:05:14.956Z,68.80
2018-11-14T12:07:44.083Z,70.16
2018-11-14T12:10:14.118Z,70.05
2018-11-14T12:12:44.038Z,70.46
2018-11-14T12:15:13.877Z,67.96
2018-11-14T12:17:43.567Z,66.44
2018-11-14T12:20:13.816Z,65.24
2018-11-14T12:22:43.080Z,66.13
2018-11-14T12:25:14.340Z,67.64
2018-11-14T12:27:43.511Z,67.37
2018-11-14T12:30:16.343Z,66.59
2018-11-14T12:32:45.405Z,66.21
2018-11-14T12:35:15.691Z,64.46
2018-11-14T12:37:44.758Z,65.76
2018-11-14T12:40:14.397Z,66.06
2018-11-14T12:42:43.602Z,64.02
2018-11-14T12:45:14.009Z,65.77
2018-11-14T12:47:43.893Z,64.76
2018-11-14T12:50:13.790Z,64.75
2018-11-14T12:52:43.216Z,65.44
2018-11-14T12:55:13.649Z,65.06
2018-11-14T12:57:42.712Z,66.16
2018-11-14T13:00:13.565Z,66.00
2018-11-14T13:02:42.680Z,65.85
2018-11-14T13:05:12.887Z,68.68
2018-11-14T13:07:42.371Z,71.07
2018-11-14T13:10:12.716Z,72.52
2018-11-14T13:12:42.358Z,74.35
2018-11-14T13:15:12.746Z,76.17
2018-11-14T13:17:42.342Z,77.35
2018-11-14T13:20:15.332Z,77.08
2018-11-14T13:22:44.683Z,77.72
2018-11-14T13:25:14.654Z,77.69
2018-11-14T13:27:45.018Z,77.20
2018-11-14T13:30:16.880Z,78.36
2018-11-14T13:32:46.745Z,79.35
2018-11-14T13:35:17.002Z,78.48
2018-11-14T13:37:46.806Z,80.08
2018-11-14T13:40:15.865Z,80.62
2018-11-14T13:42:45.041Z,81.98
2018-11-14T13:45:15.347Z,82.50
2018-11-14T13:47:44.493Z,82.21
2018-11-14T13:50:17.726Z,83.28
2018-11-14T13:52:46.678Z,83.80
2018-11-14T13:55:16.953Z,83.75
2018-11-14T13:57:47.328Z,84.13
2018-11-14T14:00:17.685Z,84.55
2018-11-14T14:02:47.262Z,84.82
2018-11-14T14:05:17.684Z,84.09
2018-11-14T14:07:46.752Z,84.52
2018-11-14T14:10:16.406Z,84.58
2018-11-14T14:12:46.648Z,84.50
2018-11-14T14:15:19.449Z,84.41
2018-11-14T14:17:49.217Z,84.14
2018-11-14T14:20:18.937Z,83.98
2018-11-14T14:22:48.021Z,84.53
2018-11-14T14:25:18.197Z,85.33
2018-11-14T14:27:47.304Z,85.75
2018-11-14T14:30:19.471Z,84.63
2018-11-14T14:32:48.951Z,84.78
2018-11-14T14:35:19.274Z,84.69
2018-11-14T14:37:48.449Z,84.71
2018-11-14T14:40:19.657Z,84.75
2018-11-14T14:42:48.794Z,84.95
2018-11-14T14:45:20.147Z,85.71
2018-11-14T14:47:49.221Z,85.76
2018-11-14T14:50:19.103Z,85.08
2018-11-14T14:52:48.162Z,85.43
2018-11-14T14:55:23.246Z,85.05
2018-11-14T14:57:52.433Z,85.70
2018-11-14T15:00:22.739Z,85.51
2018-11-14T15:02:51.787Z,86.88
2018-11-14T15:05:20.948Z,86.53
2018-11-14T15:07:50.147Z,86.88
2018-11-14T15:10:21.324Z,86.91
2018-11-14T15:12:50.455Z,87.14
2018-11-14T15:15:19.897Z,87.16
2018-11-14T15:17:49.044Z,87.19
2018-11-14T15:20:22.945Z,87.63
2018-11-14T15:22:52.210Z,88.18
2018-11-14T15:25:22.400Z,88.71
2018-11-14T15:27:51.744Z,88.60
2018-11-14T15:30:23.935Z,88.84
2018-11-14T15:32:52.998Z,88.90
2018-11-14T15:35:22.227Z,89.31
2018-11-14T15:37:51.292Z,89.90
2018-11-14T15:40:21.657Z,89.74
2018-11-14T15:42:50.907Z,90.52
2018-11-14T15:45:23.271Z,90.62
2018-11-14T15:47:52.469Z,90.42
2018-11-14T15:50:22.890Z,90.67
2018-11-14T15:52:53.098Z,91.21
2018-11-14T15:55:22.385Z,91.72
2018-11-14T15:57:51.558Z,91.78
2018-11-14T16:00:23.981Z,91.85
2018-11-14T16:02:53.090Z,91.52
2018-11-14T16:05:23.380Z,92.18
2018-11-14T16:07:53.826Z,92.64
2018-11-14T16:10:23.854Z,92.83
2018-11-14T16:12:53.012Z,93.31
2018-11-14T16:15:23.582Z,93.49
2018-11-14T16:17:52.711Z,93.57
2018-11-14T16:20:22.891Z,93.29
2018-11-14T16:22:51.890Z,93.25
2018-11-14T16:25:22.114Z,93.52
2018-11-14T16:27:52.519Z,93.58
2018-11-14T16:30:23.768Z,93.66
2018-11-14T16:32:54.181Z,93.91
2018-11-14T16:35:23.304Z,93.97
2018-11-14T16:37:52.367Z,94.33
2018-11-14T16:40:24.696Z,93.85
2018-11-14T16:42:54.653Z,93.79
2018-11-14T16:45:23.891Z,93.64
2018-11-14T16:47:52.933Z,94.00
2018-11-14T16:50:22.511Z,93.85
2018-11-14T16:52:51.708Z,94.07
2018-11-14T16:55:21.410Z,94.27
2018-11-14T16:57:51.352Z,94.27
2018-11-14T17:00:28.424Z,94.14
2018-11-14T17:02:57.521Z,94.31
2018-11-14T17:05:27.891Z,93.70
2018-11-14T17:07:57.072Z,93.66
2018-11-14T17:10:26.150Z,94.12
2018-11-14T17:12:56.926Z,93.97
2018-11-14T17:15:26.585Z,94.17
2018-11-14T17:17:55.722Z,94.32
2018-11-14T17:20:24.884Z,93.84
2018-11-14T17:22:54.449Z,94.88
2018-11-14T17:25:24.208Z,94.86
2018-11-14T17:27:53.239Z,94.74
2018-11-14T17:30:26.454Z,94.85
2018-11-14T17:32:55.749Z,95.08
2018-11-14T17:35:25.125Z,94.99
2018-11-14T17:37:54.187Z,95.10
2018-11-14T17:40:24.867Z,95.31
2018-11-14T17:42:54.331Z,94.78
2018-11-14T17:45:25.761Z,95.25
2018-11-14T17:47:55.367Z,96.31
2018-11-14T17:50:27.281Z,96.01
2018-11-14T17:52:57.110Z,96.28
2018-11-14T17:55:26.625Z,95.71
2018-11-14T17:57:55.613Z,95.87
2018-11-14T18:00:26.178Z,95.92
2018-11-14T18:02:55.312Z,95.77
2018-11-14T18:05:25.530Z,95.84
2018-11-14T18:07:54.864Z,95.88
2018-11-14T18:10:25.212Z,95.54
2018-11-14T18:12:55.379Z,95.87
2018-11-14T18:15:24.483Z,95.67
2018-11-14T18:17:54.207Z,95.65
2018-11-14T18:20:28.361Z,95.90
2018-11-14T18:22:57.422Z,95.43
2018-11-14T18:25:26.503Z,95.92
2018-11-14T18:27:55.545Z,95.98
2018-11-14T18:30:25.824Z,95.70
2018-11-14T18:32:56.265Z,95.91
2018-11-14T18:35:26.343Z,96.04
2018-11-14T18:37:56.414Z,95.72
2018-11-14T18:40:26.954Z,96.06
2018-11-14T18:42:56.975Z,95.98
2018-11-14T18:45:29.441Z,96.00
2018-11-14T18:47:59.560Z,95.95
2018-11-14T18:50:28.870Z,95.52
2018-11-14T18:52:58.171Z,95.79
2018-11-14T18:55:28.774Z,96.49
2018-11-14T18:57:58.481Z,95.83
2018-11-14T19:00:28.671Z,96.06
2018-11-14T19:02:57.991Z,96.05
2018-11-14T19:05:27.113Z,95.78
2018-11-14T19:07:56.284Z,95.73
2018-11-14T19:10:27.077Z,95.82
2018-11-14T19:12:56.255Z,95.27
2018-11-14T19:15:29.564Z,95.56
2018-11-14T19:17:58.721Z,95.17
2018-11-14T19:20:29.143Z,95.13
2018-11-14T19:22:59.072Z,94.46
2018-11-14T19:25:29.362Z,94.60
2018-11-14T19:27:58.593Z,94.46
2018-11-14T19:30:28.815Z,94.57
2018-11-14T19:32:58.509Z,94.60
2018-11-14T19:35:27.630Z,94.76
2018-11-14T19:37:57.237Z,95.06
2018-11-14T19:40:34.249Z,94.58
2018-11-14T19:43:05.554Z,94.39
2018-11-14T19:45:35.882Z,94.24
2018-11-14T19:48:05.198Z,94.44
2018-11-14T19:50:34.351Z,94.40
2018-11-14T19:53:03.589Z,94.58
2018-11-14T19:55:33.463Z,94.51
2018-11-14T19:58:03.444Z,94.25
2018-11-14T20:00:33.647Z,94.24
2018-11-14T20:03:02.836Z,93.90
2018-11-14T20:05:31.905Z,93.72
2018-11-14T20:08:00.976Z,93.92
2018-11-14T20:10:31.402Z,93.38
2018-11-14T20:13:00.626Z,93.69
2018-11-14T20:15:33.672Z,93.53
2018-11-14T20:18:03.177Z,93.35
2018-11-14T20:20:35.017Z,93.49
2018-11-14T20:23:04.859Z,93.71
2018-11-14T20:28:13.379Z,93.63
2018-11-14T20:35:53.714Z,94.02
2018-11-14T20:38:23.383Z,94.17
2018-11-14T20:40:52.782Z,94.46
2018-11-14T20:43:22.307Z,94.74
2018-11-14T20:45:51.778Z,95.11
2018-11-14T20:48:21.237Z,95.10
2018-11-14T20:50:52.141Z,95.16
2018-11-14T20:53:21.497Z,95.78
2018-11-14T20:55:52.426Z,95.65
2018-11-14T20:58:21.833Z,95.81
2018-11-14T21:00:51.362Z,96.02
2018-11-14T21:03:21.088Z,95.93
2018-11-14T21:05:51.961Z,96.32
2018-11-14T21:08:21.497Z,95.89
2018-11-14T21:10:51.555Z,96.01
2018-11-14T21:13:22.568Z,96.22
2018-11-14T21:15:53.153Z,96.01
2018-11-14T21:20:57.744Z,96.10
2018-11-14T21:23:27.200Z,96.30
2018-11-14T21:25:56.896Z,96.60
2018-11-14T21:28:26.081Z,96.52
2018-11-14T21:33:30.015Z,96.35
2018-11-14T21:35:59.910Z,96.53
2018-11-14T21:38:29.051Z,96.45
2018-11-14T21:40:58.145Z,96.37
2018-11-14T21:43:28.401Z,96.20
2018-11-14T21:45:57.566Z,96.58
2018-11-14T21:48:26.794Z,96.56
2018-11-14T21:50:56.056Z,96.42
2018-11-14T21:53:25.125Z,96.75
2018-11-14T21:55:54.237Z,96.66
2018-11-14T21:58:23.288Z,96.67
2018-11-14T22:00:53.419Z,96.64
2018-11-14T22:03:22.581Z,96.23
2018-11-14T22:05:51.822Z,96.63
2018-11-14T22:08:20.811Z,96.03
2018-11-14T22:10:49.986Z,96.08
2018-11-14T22:13:19.012Z,95.96
2018-11-14T22:15:48.329Z,96.00
2018-11-14T22:18:17.534Z,95.63
2018-11-14T22:20:46.721Z,95.70
2018-11-14T22:23:16.101Z,95.79
2018-11-14T22:25:45.305Z,95.85
2018-11-14T22:28:14.596Z,96.43
2018-11-14T22:30:43.746Z,96.23
2018-11-14T22:33:12.885Z,96.13
2018-11-14T22:40:52.076Z,96.52
2018-11-14T22:43:21.333Z,96.63
2018-11-14T22:48:25.531Z,96.80
2018-11-14T22:50:54.715Z,96.83
2018-11-14T22:53:24.002Z,96.90
2018-11-14T23:01:02.639Z,97.16
2018-11-14T23:03:31.731Z,97.24
2018-11-14T23:08:36.598Z,97.14
2018-11-14T23:11:05.888Z,96.95
2018-11-14T23:13:35.251Z,97.11
2018-11-14T23:16:04.916Z,97.27
2018-11-14T23:18:34.209Z,97.33
2018-11-14T23:21:03.391Z,97.59
2018-11-14T23:23:32.476Z,96.80
2018-11-14T23:26:01.879Z,97.15
2018-11-14T23:31:05.546Z,96.94
2018-11-14T23:33:34.766Z,96.91
2018-11-14T23:38:38.570Z,98.03
2018-11-14T23:41:07.700Z,98.59
2018-11-14T23:43:36.971Z,98.33
2018-11-14T23:48:41.309Z,98.50
2018-11-14T23:51:10.524Z,98.49
2018-11-14T23:53:39.858Z,98.72
2018-11-14T23:58:43.664Z,98.73
